sensor_id;sensor_type;location;lat;lon;timestamp;temperature;humidity
15131;DHT22;7666;50.920;4.628;2024-02-04T00:01:25;10.60;99.90
15131;DHT22;7666;50.920;4.628;2024-02-04T00:04:11;10.60;99.90
15131;DHT22;7666;50.920;4.628;2024-02-04T00:06:57;10.60;99.90
15131;DHT22;7666;50.920;4.628;2024-02-04T00:09:43;10.60;99.90
15131;DHT22;7666;50.920;4.628;2024-02-04T00:12:29;10.60;99.90
15131;DHT22;7666;50.920;4.628;2024-02-04T00:15:15;10.60;99.90
15131;DHT22;7666;50.920;4.628;2024-02-04T00:18:01;10.60;99.90
15131;DHT22;7666;50.920;4.628;2024-02-04T00:20:47;10.60;99.90
15131;DHT22;7666;50.920;4.628;2024-02-04T00:23:33;10.60;99.90
15131;DHT22;7666;50.920;4.628;2024-02-04T00:26:19;10.60;99.90
15131;DHT22;7666;50.920;4.628;2024-02-04T00:29:05;10.60;99.90
15131;DHT22;7666;50.920;4.628;2024-02-04T00:31:51;10.60;99.90
15131;DHT22;7666;50.920;4.628;2024-02-04T00:34:37;10.60;99.90
15131;DHT22;7666;50.920;4.628;2024-02-04T00:37:23;10.60;99.90
15131;DHT22;7666;50.920;4.628;2024-02-04T00:40:09;10.60;99.90
15131;DHT22;7666;50.920;4.628;2024-02-04T00:42:55;10.60;99.90
15131;DHT22;7666;50.920;4.628;2024-02-04T00:45:41;10.60;99.90
15131;DHT22;7666;50.920;4.628;2024-02-04T00:48:27;10.60;99.90
15131;DHT22;7666;50.920;4.628;2024-02-04T00:51:13;10.60;99.90
15131;DHT22;7666;50.920;4.628;2024-02-04T00:54:02;10.60;99.90
15131;DHT22;7666;50.920;4.628;2024-02-04T00:56:48;10.60;99.90
15131;DHT22;7666;50.920;4.628;2024-02-04T00:59:34;10.60;99.90
15131;DHT22;7666;50.920;4.628;2024-02-04T01:02:20;10.60;99.90
15131;DHT22;7666;50.920;4.628;2024-02-04T01:05:07;10.60;99.90
15131;DHT22;7666;50.920;4.628;2024-02-04T01:07:53;10.60;99.90
15131;DHT22;7666;50.920;4.628;2024-02-04T01:10:39;10.60;99.90
15131;DHT22;7666;50.920;4.628;2024-02-04T01:13:24;10.60;99.90
15131;DHT22;7666;50.920;4.628;2024-02-04T01:16:10;10.60;99.90
15131;DHT22;7666;50.920;4.628;2024-02-04T01:18:56;10.60;99.90
15131;DHT22;7666;50.920;4.628;2024-02-04T01:21:42;10.60;99.90
15131;DHT22;7666;50.920;4.628;2024-02-04T01:24:30;10.60;99.90
15131;DHT22;7666;50.920;4.628;2024-02-04T01:27:17;10.60;99.90
15131;DHT22;7666;50.920;4.628;2024-02-04T01:30:03;10.60;99.90
15131;DHT22;7666;50.920;4.628;2024-02-04T01:32:49;10.60;99.90
15131;DHT22;7666;50.920;4.628;2024-02-04T01:35:35;10.60;99.90
15131;DHT22;7666;50.920;4.628;2024-02-04T01:38:21;10.60;99.90
15131;DHT22;7666;50.920;4.628;2024-02-04T01:41:07;10.60;99.90
15131;DHT22;7666;50.920;4.628;2024-02-04T01:43:54;10.60;99.90
15131;DHT22;7666;50.920;4.628;2024-02-04T01:46:40;10.60;99.90
15131;DHT22;7666;50.920;4.628;2024-02-04T01:49:26;10.60;99.90
15131;DHT22;7666;50.920;4.628;2024-02-04T01:52:13;10.60;99.90
15131;DHT22;7666;50.920;4.628;2024-02-04T01:55:00;10.70;99.90
15131;DHT22;7666;50.920;4.628;2024-02-04T01:57:48;10.70;99.90
15131;DHT22;7666;50.920;4.628;2024-02-04T02:00:36;10.70;99.90
15131;DHT22;7666;50.920;4.628;2024-02-04T02:03:22;10.60;99.90
15131;DHT22;7666;50.920;4.628;2024-02-04T02:06:09;10.60;99.90
15131;DHT22;7666;50.920;4.628;2024-02-04T02:08:59;10.70;99.90
15131;DHT22;7666;50.920;4.628;2024-02-04T02:12:39;10.60;99.90
15131;DHT22;7666;50.920;4.628;2024-02-04T02:15:15;10.70;99.90
15131;DHT22;7666;50.920;4.628;2024-02-04T02:21:10;10.70;99.90
15131;DHT22;7666;50.920;4.628;2024-02-04T02:27:03;10.70;99.90
15131;DHT22;7666;50.920;4.628;2024-02-04T02:29:51;10.70;99.90
15131;DHT22;7666;50.920;4.628;2024-02-04T02:32:37;10.70;99.90
15131;DHT22;7666;50.920;4.628;2024-02-04T02:35:23;10.70;99.90
15131;DHT22;7666;50.920;4.628;2024-02-04T02:38:25;10.70;99.90
15131;DHT22;7666;50.920;4.628;2024-02-04T02:41:12;10.70;99.90
15131;DHT22;7666;50.920;4.628;2024-02-04T02:44:03;10.80;99.90
15131;DHT22;7666;50.920;4.628;2024-02-04T02:46:50;10.70;99.90
15131;DHT22;7666;50.920;4.628;2024-02-04T02:49:36;10.80;99.90
15131;DHT22;7666;50.920;4.628;2024-02-04T02:52:22;10.80;99.90
15131;DHT22;7666;50.920;4.628;2024-02-04T02:55:08;10.70;99.90
15131;DHT22;7666;50.920;4.628;2024-02-04T02:57:54;10.80;99.90
15131;DHT22;7666;50.920;4.628;2024-02-04T03:00:40;10.80;99.90
15131;DHT22;7666;50.920;4.628;2024-02-04T03:03:26;10.80;99.90
15131;DHT22;7666;50.920;4.628;2024-02-04T03:06:12;10.80;99.90
15131;DHT22;7666;50.920;4.628;2024-02-04T03:08:58;10.80;99.90
15131;DHT22;7666;50.920;4.628;2024-02-04T03:11:44;10.80;99.90
15131;DHT22;7666;50.920;4.628;2024-02-04T03:14:31;10.80;99.90
15131;DHT22;7666;50.920;4.628;2024-02-04T03:17:17;10.80;99.90
15131;DHT22;7666;50.920;4.628;2024-02-04T03:20:06;10.80;99.90
15131;DHT22;7666;50.920;4.628;2024-02-04T03:22:52;10.80;99.90
15131;DHT22;7666;50.920;4.628;2024-02-04T03:25:38;10.80;99.90
15131;DHT22;7666;50.920;4.628;2024-02-04T03:28:24;10.80;99.90
15131;DHT22;7666;50.920;4.628;2024-02-04T03:31:10;10.80;99.90
15131;DHT22;7666;50.920;4.628;2024-02-04T03:33:56;10.80;99.90
15131;DHT22;7666;50.920;4.628;2024-02-04T03:36:42;10.80;99.90
15131;DHT22;7666;50.920;4.628;2024-02-04T03:39:28;10.80;99.90
15131;DHT22;7666;50.920;4.628;2024-02-04T03:42:14;10.80;99.90
15131;DHT22;7666;50.920;4.628;2024-02-04T03:45:00;10.80;99.90
15131;DHT22;7666;50.920;4.628;2024-02-04T03:47:48;10.80;99.90
15131;DHT22;7666;50.920;4.628;2024-02-04T03:50:36;10.80;99.90
15131;DHT22;7666;50.920;4.628;2024-02-04T03:53:21;10.80;99.90
15131;DHT22;7666;50.920;4.628;2024-02-04T03:56:08;10.70;99.90
15131;DHT22;7666;50.920;4.628;2024-02-04T03:58:54;10.80;99.90
15131;DHT22;7666;50.920;4.628;2024-02-04T04:01:40;10.80;99.90
15131;DHT22;7666;50.920;4.628;2024-02-04T04:04:28;10.80;99.90
15131;DHT22;7666;50.920;4.628;2024-02-04T04:07:14;10.80;99.90
15131;DHT22;7666;50.920;4.628;2024-02-04T04:10:00;10.80;99.90
15131;DHT22;7666;50.920;4.628;2024-02-04T04:12:46;10.80;99.90
15131;DHT22;7666;50.920;4.628;2024-02-04T04:15:32;10.80;99.90
15131;DHT22;7666;50.920;4.628;2024-02-04T04:18:17;10.80;99.90
15131;DHT22;7666;50.920;4.628;2024-02-04T04:21:04;10.70;99.90
15131;DHT22;7666;50.920;4.628;2024-02-04T04:23:50;10.70;99.90
15131;DHT22;7666;50.920;4.628;2024-02-04T04:26:36;10.80;99.90
15131;DHT22;7666;50.920;4.628;2024-02-04T04:29:22;10.80;99.90
15131;DHT22;7666;50.920;4.628;2024-02-04T04:32:08;10.70;99.90
15131;DHT22;7666;50.920;4.628;2024-02-04T04:34:54;10.70;99.90
15131;DHT22;7666;50.920;4.628;2024-02-04T04:37:41;10.70;99.90
15131;DHT22;7666;50.920;4.628;2024-02-04T04:40:27;10.70;99.90
15131;DHT22;7666;50.920;4.628;2024-02-04T04:43:13;10.70;99.90
15131;DHT22;7666;50.920;4.628;2024-02-04T04:46:01;10.70;99.90
15131;DHT22;7666;50.920;4.628;2024-02-04T04:48:47;10.70;99.90
15131;DHT22;7666;50.920;4.628;2024-02-04T04:51:33;10.70;99.90
15131;DHT22;7666;50.920;4.628;2024-02-04T04:54:19;10.70;99.90
15131;DHT22;7666;50.920;4.628;2024-02-04T04:57:05;10.70;99.90
15131;DHT22;7666;50.920;4.628;2024-02-04T04:59:51;10.70;99.90
15131;DHT22;7666;50.920;4.628;2024-02-04T05:02:37;10.70;99.90
15131;DHT22;7666;50.920;4.628;2024-02-04T05:05:23;10.70;99.90
15131;DHT22;7666;50.920;4.628;2024-02-04T05:08:09;10.70;99.90
15131;DHT22;7666;50.920;4.628;2024-02-04T05:10:55;10.70;99.90
15131;DHT22;7666;50.920;4.628;2024-02-04T05:13:41;10.70;99.90
15131;DHT22;7666;50.920;4.628;2024-02-04T05:16:26;10.70;99.90
15131;DHT22;7666;50.920;4.628;2024-02-04T05:19:12;10.70;99.90
15131;DHT22;7666;50.920;4.628;2024-02-04T05:21:58;10.70;99.90
15131;DHT22;7666;50.920;4.628;2024-02-04T05:24:44;10.70;99.90
15131;DHT22;7666;50.920;4.628;2024-02-04T05:27:30;10.70;99.90
15131;DHT22;7666;50.920;4.628;2024-02-04T05:30:16;10.70;99.90
15131;DHT22;7666;50.920;4.628;2024-02-04T05:33:03;10.70;99.90
15131;DHT22;7666;50.920;4.628;2024-02-04T05:35:49;10.70;99.90
15131;DHT22;7666;50.920;4.628;2024-02-04T05:38:35;10.60;99.90
15131;DHT22;7666;50.920;4.628;2024-02-04T05:41:20;10.60;99.90
15131;DHT22;7666;50.920;4.628;2024-02-04T05:44:07;10.60;99.90
15131;DHT22;7666;50.920;4.628;2024-02-04T05:46:55;10.60;99.90
15131;DHT22;7666;50.920;4.628;2024-02-04T05:49:41;10.60;99.90
15131;DHT22;7666;50.920;4.628;2024-02-04T05:52:27;10.60;99.90
15131;DHT22;7666;50.920;4.628;2024-02-04T05:55:13;10.60;99.90
15131;DHT22;7666;50.920;4.628;2024-02-04T05:57:59;10.60;99.90
15131;DHT22;7666;50.920;4.628;2024-02-04T06:00:45;10.60;99.90
15131;DHT22;7666;50.920;4.628;2024-02-04T06:03:31;10.60;99.90
15131;DHT22;7666;50.920;4.628;2024-02-04T06:06:17;10.60;99.90
15131;DHT22;7666;50.920;4.628;2024-02-04T06:09:05;10.60;99.90
15131;DHT22;7666;50.920;4.628;2024-02-04T06:11:52;10.50;99.90
15131;DHT22;7666;50.920;4.628;2024-02-04T06:14:38;10.70;99.90
15131;DHT22;7666;50.920;4.628;2024-02-04T06:17:25;10.70;99.90
15131;DHT22;7666;50.920;4.628;2024-02-04T06:20:11;10.70;99.90
15131;DHT22;7666;50.920;4.628;2024-02-04T06:22:57;10.70;99.90
15131;DHT22;7666;50.920;4.628;2024-02-04T06:25:43;10.80;99.90
15131;DHT22;7666;50.920;4.628;2024-02-04T06:28:29;10.80;99.90
15131;DHT22;7666;50.920;4.628;2024-02-04T06:31:15;10.80;99.90
15131;DHT22;7666;50.920;4.628;2024-02-04T06:34:01;10.80;99.90
15131;DHT22;7666;50.920;4.628;2024-02-04T06:36:47;10.70;99.90
15131;DHT22;7666;50.920;4.628;2024-02-04T06:39:33;10.80;99.90
15131;DHT22;7666;50.920;4.628;2024-02-04T06:42:19;10.80;99.90
15131;DHT22;7666;50.920;4.628;2024-02-04T06:45:05;10.80;99.90
15131;DHT22;7666;50.920;4.628;2024-02-04T06:47:51;10.80;99.90
15131;DHT22;7666;50.920;4.628;2024-02-04T06:50:37;10.80;99.90
15131;DHT22;7666;50.920;4.628;2024-02-04T06:53:23;10.80;99.90
15131;DHT22;7666;50.920;4.628;2024-02-04T06:56:09;10.70;99.90
15131;DHT22;7666;50.920;4.628;2024-02-04T06:58:55;10.70;99.90
15131;DHT22;7666;50.920;4.628;2024-02-04T07:01:41;10.80;99.90
15131;DHT22;7666;50.920;4.628;2024-02-04T07:04:27;10.80;99.90
15131;DHT22;7666;50.920;4.628;2024-02-04T07:07:13;10.70;99.90
15131;DHT22;7666;50.920;4.628;2024-02-04T07:09:59;10.70;99.90
15131;DHT22;7666;50.920;4.628;2024-02-04T07:12:45;10.70;99.90
15131;DHT22;7666;50.920;4.628;2024-02-04T07:15:31;10.70;99.90
15131;DHT22;7666;50.920;4.628;2024-02-04T07:18:17;10.80;99.90
15131;DHT22;7666;50.920;4.628;2024-02-04T07:21:07;10.70;99.90
15131;DHT22;7666;50.920;4.628;2024-02-04T07:23:53;10.70;99.90
15131;DHT22;7666;50.920;4.628;2024-02-04T07:26:39;10.70;99.90
15131;DHT22;7666;50.920;4.628;2024-02-04T07:29:25;10.80;99.90
15131;DHT22;7666;50.920;4.628;2024-02-04T07:32:11;10.80;99.90
15131;DHT22;7666;50.920;4.628;2024-02-04T07:34:57;10.80;99.90
15131;DHT22;7666;50.920;4.628;2024-02-04T07:37:42;10.80;99.90
15131;DHT22;7666;50.920;4.628;2024-02-04T07:40:29;10.80;99.90
15131;DHT22;7666;50.920;4.628;2024-02-04T07:43:16;10.80;99.90
15131;DHT22;7666;50.920;4.628;2024-02-04T07:46:02;10.80;99.90
15131;DHT22;7666;50.920;4.628;2024-02-04T07:48:48;10.80;99.90
15131;DHT22;7666;50.920;4.628;2024-02-04T07:51:34;10.80;99.90
15131;DHT22;7666;50.920;4.628;2024-02-04T07:54:21;10.80;99.90
15131;DHT22;7666;50.920;4.628;2024-02-04T07:57:07;10.80;99.90
15131;DHT22;7666;50.920;4.628;2024-02-04T07:59:53;10.80;99.90
15131;DHT22;7666;50.920;4.628;2024-02-04T08:02:39;10.90;99.90
15131;DHT22;7666;50.920;4.628;2024-02-04T08:05:25;10.90;99.90
15131;DHT22;7666;50.920;4.628;2024-02-04T08:08:11;10.90;99.90
15131;DHT22;7666;50.920;4.628;2024-02-04T08:10:57;10.90;99.90
15131;DHT22;7666;50.920;4.628;2024-02-04T08:13:43;10.90;99.90
15131;DHT22;7666;50.920;4.628;2024-02-04T08:16:29;10.90;99.90
15131;DHT22;7666;50.920;4.628;2024-02-04T08:19:16;10.90;99.90
15131;DHT22;7666;50.920;4.628;2024-02-04T08:22:02;10.90;99.90
15131;DHT22;7666;50.920;4.628;2024-02-04T08:24:49;11.00;99.90
15131;DHT22;7666;50.920;4.628;2024-02-04T08:27:35;11.00;99.90
15131;DHT22;7666;50.920;4.628;2024-02-04T08:30:21;11.00;99.90
15131;DHT22;7666;50.920;4.628;2024-02-04T08:33:07;11.00;99.90
15131;DHT22;7666;50.920;4.628;2024-02-04T08:35:54;11.00;99.90
15131;DHT22;7666;50.920;4.628;2024-02-04T08:38:40;11.00;99.90
15131;DHT22;7666;50.920;4.628;2024-02-04T08:41:26;11.00;99.90
15131;DHT22;7666;50.920;4.628;2024-02-04T08:44:12;11.10;99.90
15131;DHT22;7666;50.920;4.628;2024-02-04T08:46:58;11.10;99.90
15131;DHT22;7666;50.920;4.628;2024-02-04T08:49:44;11.10;99.90
15131;DHT22;7666;50.920;4.628;2024-02-04T08:52:30;11.10;99.90
15131;DHT22;7666;50.920;4.628;2024-02-04T08:55:16;11.10;99.90
15131;DHT22;7666;50.920;4.628;2024-02-04T08:58:02;11.10;99.90
15131;DHT22;7666;50.920;4.628;2024-02-04T09:00:48;11.10;99.90
15131;DHT22;7666;50.920;4.628;2024-02-04T09:03:34;11.10;99.90
15131;DHT22;7666;50.920;4.628;2024-02-04T09:06:20;11.10;99.90
15131;DHT22;7666;50.920;4.628;2024-02-04T09:09:06;11.20;99.90
15131;DHT22;7666;50.920;4.628;2024-02-04T09:11:54;11.20;99.90
15131;DHT22;7666;50.920;4.628;2024-02-04T09:14:39;11.20;99.90
15131;DHT22;7666;50.920;4.628;2024-02-04T09:17:25;11.20;99.90
15131;DHT22;7666;50.920;4.628;2024-02-04T09:20:11;11.20;99.90
15131;DHT22;7666;50.920;4.628;2024-02-04T09:22:58;11.30;99.90
15131;DHT22;7666;50.920;4.628;2024-02-04T09:25:44;11.30;99.90
15131;DHT22;7666;50.920;4.628;2024-02-04T09:28:30;11.30;99.90
15131;DHT22;7666;50.920;4.628;2024-02-04T09:31:16;11.40;99.90
15131;DHT22;7666;50.920;4.628;2024-02-04T09:34:02;11.30;99.90
15131;DHT22;7666;50.920;4.628;2024-02-04T09:36:48;11.30;99.90
15131;DHT22;7666;50.920;4.628;2024-02-04T09:39:34;11.30;99.90
15131;DHT22;7666;50.920;4.628;2024-02-04T09:42:21;11.30;99.90
15131;DHT22;7666;50.920;4.628;2024-02-04T09:45:07;11.30;99.90
15131;DHT22;7666;50.920;4.628;2024-02-04T09:47:53;11.30;99.90
15131;DHT22;7666;50.920;4.628;2024-02-04T09:50:40;11.30;99.90
15131;DHT22;7666;50.920;4.628;2024-02-04T09:53:33;11.30;99.90
15131;DHT22;7666;50.920;4.628;2024-02-04T09:56:25;11.30;99.90
15131;DHT22;7666;50.920;4.628;2024-02-04T09:59:11;11.30;99.90
15131;DHT22;7666;50.920;4.628;2024-02-04T10:01:58;11.30;99.90
15131;DHT22;7666;50.920;4.628;2024-02-04T10:04:44;11.30;99.90
15131;DHT22;7666;50.920;4.628;2024-02-04T10:07:30;11.30;99.90
15131;DHT22;7666;50.920;4.628;2024-02-04T10:10:16;11.30;99.90
15131;DHT22;7666;50.920;4.628;2024-02-04T10:13:07;11.30;99.90
15131;DHT22;7666;50.920;4.628;2024-02-04T10:15:53;11.30;99.90
15131;DHT22;7666;50.920;4.628;2024-02-04T10:18:47;11.30;99.90
15131;DHT22;7666;50.920;4.628;2024-02-04T10:21:34;11.40;99.90
15131;DHT22;7666;50.920;4.628;2024-02-04T10:24:21;11.40;99.90
15131;DHT22;7666;50.920;4.628;2024-02-04T10:27:07;11.40;99.90
15131;DHT22;7666;50.920;4.628;2024-02-04T10:29:55;11.50;99.90
15131;DHT22;7666;50.920;4.628;2024-02-04T10:32:42;11.50;99.90
15131;DHT22;7666;50.920;4.628;2024-02-04T10:35:29;11.50;99.90
15131;DHT22;7666;50.920;4.628;2024-02-04T10:38:15;11.50;99.90
15131;DHT22;7666;50.920;4.628;2024-02-04T10:41:02;11.50;99.90
15131;DHT22;7666;50.920;4.628;2024-02-04T10:43:49;11.60;99.90
15131;DHT22;7666;50.920;4.628;2024-02-04T10:46:36;11.60;99.90
15131;DHT22;7666;50.920;4.628;2024-02-04T10:49:26;11.50;99.90
15131;DHT22;7666;50.920;4.628;2024-02-04T10:52:13;11.60;99.90
15131;DHT22;7666;50.920;4.628;2024-02-04T10:54:59;11.60;99.90
15131;DHT22;7666;50.920;4.628;2024-02-04T10:57:46;11.70;99.90
15131;DHT22;7666;50.920;4.628;2024-02-04T11:00:33;11.70;99.90
15131;DHT22;7666;50.920;4.628;2024-02-04T11:03:19;11.70;99.90
15131;DHT22;7666;50.920;4.628;2024-02-04T11:06:07;11.70;99.90
15131;DHT22;7666;50.920;4.628;2024-02-04T11:08:55;11.80;99.90
15131;DHT22;7666;50.920;4.628;2024-02-04T11:11:43;11.80;99.90
15131;DHT22;7666;50.920;4.628;2024-02-04T11:14:30;11.80;99.90
15131;DHT22;7666;50.920;4.628;2024-02-04T11:17:34;11.80;99.90
15131;DHT22;7666;50.920;4.628;2024-02-04T11:26:24;11.80;99.90
15131;DHT22;7666;50.920;4.628;2024-02-04T11:29:11;11.80;99.90
15131;DHT22;7666;50.920;4.628;2024-02-04T11:31:57;11.80;99.90
15131;DHT22;7666;50.920;4.628;2024-02-04T11:34:44;11.80;99.90
15131;DHT22;7666;50.920;4.628;2024-02-04T11:37:31;11.70;99.90
15131;DHT22;7666;50.920;4.628;2024-02-04T11:40:17;11.70;99.90
15131;DHT22;7666;50.920;4.628;2024-02-04T11:45:52;11.70;99.90
15131;DHT22;7666;50.920;4.628;2024-02-04T11:48:40;11.70;99.90
15131;DHT22;7666;50.920;4.628;2024-02-04T11:51:26;11.80;99.90
15131;DHT22;7666;50.920;4.628;2024-02-04T11:54:12;11.80;99.90
15131;DHT22;7666;50.920;4.628;2024-02-04T11:57:00;11.80;99.90
15131;DHT22;7666;50.920;4.628;2024-02-04T11:59:47;11.80;99.90
15131;DHT22;7666;50.920;4.628;2024-02-04T12:02:33;11.80;99.90
15131;DHT22;7666;50.920;4.628;2024-02-04T12:05:19;11.80;99.90
15131;DHT22;7666;50.920;4.628;2024-02-04T12:08:07;11.80;99.90
15131;DHT22;7666;50.920;4.628;2024-02-04T12:10:53;11.90;99.90
15131;DHT22;7666;50.920;4.628;2024-02-04T12:13:40;11.90;99.90
15131;DHT22;7666;50.920;4.628;2024-02-04T12:16:26;11.80;99.90
15131;DHT22;7666;50.920;4.628;2024-02-04T12:19:12;11.80;99.90
15131;DHT22;7666;50.920;4.628;2024-02-04T12:21:58;11.80;99.90
15131;DHT22;7666;50.920;4.628;2024-02-04T12:24:45;11.80;99.90
15131;DHT22;7666;50.920;4.628;2024-02-04T12:27:31;11.80;99.90
15131;DHT22;7666;50.920;4.628;2024-02-04T12:30:17;11.80;99.90
15131;DHT22;7666;50.920;4.628;2024-02-04T12:33:05;11.80;99.90
15131;DHT22;7666;50.920;4.628;2024-02-04T12:35:54;11.80;99.90
15131;DHT22;7666;50.920;4.628;2024-02-04T12:38:50;11.70;99.90
15131;DHT22;7666;50.920;4.628;2024-02-04T12:41:36;11.70;99.90
15131;DHT22;7666;50.920;4.628;2024-02-04T12:44:22;11.70;99.90
15131;DHT22;7666;50.920;4.628;2024-02-04T12:47:08;11.70;99.90
15131;DHT22;7666;50.920;4.628;2024-02-04T12:49:58;11.70;99.90
15131;DHT22;7666;50.920;4.628;2024-02-04T12:52:46;11.70;99.90
15131;DHT22;7666;50.920;4.628;2024-02-04T12:55:36;11.70;99.90
15131;DHT22;7666;50.920;4.628;2024-02-04T12:58:22;11.70;99.90
15131;DHT22;7666;50.920;4.628;2024-02-04T13:01:08;11.70;99.90
15131;DHT22;7666;50.920;4.628;2024-02-04T13:03:55;11.70;99.90
15131;DHT22;7666;50.920;4.628;2024-02-04T13:06:41;11.80;99.90
15131;DHT22;7666;50.920;4.628;2024-02-04T13:09:27;11.80;99.90
15131;DHT22;7666;50.920;4.628;2024-02-04T13:12:14;11.90;99.90
15131;DHT22;7666;50.920;4.628;2024-02-04T13:15:01;11.90;99.90
15131;DHT22;7666;50.920;4.628;2024-02-04T13:17:47;11.90;99.90
15131;DHT22;7666;50.920;4.628;2024-02-04T13:20:33;12.00;99.90
15131;DHT22;7666;50.920;4.628;2024-02-04T13:23:19;12.00;99.90
15131;DHT22;7666;50.920;4.628;2024-02-04T13:26:05;12.10;99.90
15131;DHT22;7666;50.920;4.628;2024-02-04T13:28:51;12.00;99.90
15131;DHT22;7666;50.920;4.628;2024-02-04T13:31:37;12.00;99.90
15131;DHT22;7666;50.920;4.628;2024-02-04T13:34:23;12.00;99.90
15131;DHT22;7666;50.920;4.628;2024-02-04T13:37:09;12.00;99.90
15131;DHT22;7666;50.920;4.628;2024-02-04T13:39:55;12.00;99.90
15131;DHT22;7666;50.920;4.628;2024-02-04T13:42:42;12.00;99.90
15131;DHT22;7666;50.920;4.628;2024-02-04T13:45:28;12.00;99.90
15131;DHT22;7666;50.920;4.628;2024-02-04T13:48:14;12.00;99.90
15131;DHT22;7666;50.920;4.628;2024-02-04T13:51:00;12.10;99.90
15131;DHT22;7666;50.920;4.628;2024-02-04T13:53:46;12.00;99.90
15131;DHT22;7666;50.920;4.628;2024-02-04T13:56:32;12.10;99.90
15131;DHT22;7666;50.920;4.628;2024-02-04T13:59:19;12.10;99.90
15131;DHT22;7666;50.920;4.628;2024-02-04T14:02:05;12.10;99.90
15131;DHT22;7666;50.920;4.628;2024-02-04T14:04:53;12.10;99.90
15131;DHT22;7666;50.920;4.628;2024-02-04T14:07:39;12.00;99.90
15131;DHT22;7666;50.920;4.628;2024-02-04T14:10:25;12.00;99.90
15131;DHT22;7666;50.920;4.628;2024-02-04T14:13:11;12.00;99.90
15131;DHT22;7666;50.920;4.628;2024-02-04T14:15:57;12.00;99.90
15131;DHT22;7666;50.920;4.628;2024-02-04T14:18:43;12.00;99.90
15131;DHT22;7666;50.920;4.628;2024-02-04T14:21:31;12.00;99.90
15131;DHT22;7666;50.920;4.628;2024-02-04T14:24:18;12.00;99.90
15131;DHT22;7666;50.920;4.628;2024-02-04T14:27:04;11.90;99.90
15131;DHT22;7666;50.920;4.628;2024-02-04T14:29:50;11.90;99.90
15131;DHT22;7666;50.920;4.628;2024-02-04T14:32:36;11.80;99.90
15131;DHT22;7666;50.920;4.628;2024-02-04T14:35:22;11.80;99.90
15131;DHT22;7666;50.920;4.628;2024-02-04T14:38:08;11.80;99.90
15131;DHT22;7666;50.920;4.628;2024-02-04T14:40:54;11.80;99.90
15131;DHT22;7666;50.920;4.628;2024-02-04T14:43:40;11.80;99.90
15131;DHT22;7666;50.920;4.628;2024-02-04T14:46:25;11.80;99.90
15131;DHT22;7666;50.920;4.628;2024-02-04T14:49:12;11.80;99.90
15131;DHT22;7666;50.920;4.628;2024-02-04T14:51:58;11.70;99.90
15131;DHT22;7666;50.920;4.628;2024-02-04T14:54:44;11.70;99.90
15131;DHT22;7666;50.920;4.628;2024-02-04T14:57:30;11.70;99.90
15131;DHT22;7666;50.920;4.628;2024-02-04T15:00:16;11.70;99.90
15131;DHT22;7666;50.920;4.628;2024-02-04T15:03:02;11.70;99.90
15131;DHT22;7666;50.920;4.628;2024-02-04T15:05:48;11.60;99.90
15131;DHT22;7666;50.920;4.628;2024-02-04T15:08:34;11.60;99.90
15131;DHT22;7666;50.920;4.628;2024-02-04T15:11:20;11.60;99.90
15131;DHT22;7666;50.920;4.628;2024-02-04T15:14:06;11.60;99.90
15131;DHT22;7666;50.920;4.628;2024-02-04T15:16:53;11.60;99.90
15131;DHT22;7666;50.920;4.628;2024-02-04T15:19:43;11.60;99.90
15131;DHT22;7666;50.920;4.628;2024-02-04T15:22:29;11.60;99.90
15131;DHT22;7666;50.920;4.628;2024-02-04T15:25:16;11.60;99.90
15131;DHT22;7666;50.920;4.628;2024-02-04T15:28:04;11.60;99.90
15131;DHT22;7666;50.920;4.628;2024-02-04T15:30:51;11.60;99.90
15131;DHT22;7666;50.920;4.628;2024-02-04T15:33:37;11.60;99.90
15131;DHT22;7666;50.920;4.628;2024-02-04T15:36:23;11.60;99.90
15131;DHT22;7666;50.920;4.628;2024-02-04T15:39:11;11.60;99.90
15131;DHT22;7666;50.920;4.628;2024-02-04T15:41:57;11.60;99.90
15131;DHT22;7666;50.920;4.628;2024-02-04T15:44:43;11.60;99.90
15131;DHT22;7666;50.920;4.628;2024-02-04T15:47:30;11.60;99.90
15131;DHT22;7666;50.920;4.628;2024-02-04T15:50:18;11.60;99.90
15131;DHT22;7666;50.920;4.628;2024-02-04T15:53:04;11.60;99.90
15131;DHT22;7666;50.920;4.628;2024-02-04T15:55:50;11.60;99.90
15131;DHT22;7666;50.920;4.628;2024-02-04T15:58:37;11.60;99.90
15131;DHT22;7666;50.920;4.628;2024-02-04T16:01:25;11.60;99.90
15131;DHT22;7666;50.920;4.628;2024-02-04T16:04:11;11.60;99.90
15131;DHT22;7666;50.920;4.628;2024-02-04T16:07:02;11.60;99.90
15131;DHT22;7666;50.920;4.628;2024-02-04T16:09:49;11.60;99.90
15131;DHT22;7666;50.920;4.628;2024-02-04T16:12:35;11.60;99.90
15131;DHT22;7666;50.920;4.628;2024-02-04T16:15:26;11.60;99.90
15131;DHT22;7666;50.920;4.628;2024-02-04T16:18:13;11.60;99.90
15131;DHT22;7666;50.920;4.628;2024-02-04T16:20:59;11.60;99.90
15131;DHT22;7666;50.920;4.628;2024-02-04T16:23:45;11.60;99.90
15131;DHT22;7666;50.920;4.628;2024-02-04T16:26:31;11.60;99.90
15131;DHT22;7666;50.920;4.628;2024-02-04T16:29:17;11.60;99.90
15131;DHT22;7666;50.920;4.628;2024-02-04T16:32:03;11.60;99.90
15131;DHT22;7666;50.920;4.628;2024-02-04T16:34:49;11.60;99.90
15131;DHT22;7666;50.920;4.628;2024-02-04T16:37:35;11.60;99.90
15131;DHT22;7666;50.920;4.628;2024-02-04T16:40:21;11.60;99.90
15131;DHT22;7666;50.920;4.628;2024-02-04T16:43:07;11.60;99.90
15131;DHT22;7666;50.920;4.628;2024-02-04T16:45:53;11.60;99.90
15131;DHT22;7666;50.920;4.628;2024-02-04T16:48:40;11.60;99.90
15131;DHT22;7666;50.920;4.628;2024-02-04T16:51:26;11.60;99.90
15131;DHT22;7666;50.920;4.628;2024-02-04T16:54:12;11.60;99.90
15131;DHT22;7666;50.920;4.628;2024-02-04T16:56:58;11.60;99.90
15131;DHT22;7666;50.920;4.628;2024-02-04T16:59:44;11.60;99.90
15131;DHT22;7666;50.920;4.628;2024-02-04T17:02:31;11.60;99.90
15131;DHT22;7666;50.920;4.628;2024-02-04T17:05:18;11.60;99.90
15131;DHT22;7666;50.920;4.628;2024-02-04T17:08:05;11.60;99.90
15131;DHT22;7666;50.920;4.628;2024-02-04T17:10:51;11.60;99.90
15131;DHT22;7666;50.920;4.628;2024-02-04T17:13:38;11.60;99.90
15131;DHT22;7666;50.920;4.628;2024-02-04T17:22:16;11.60;99.90
15131;DHT22;7666;50.920;4.628;2024-02-04T17:25:09;11.60;99.90
15131;DHT22;7666;50.920;4.628;2024-02-04T17:28:02;11.60;99.90
15131;DHT22;7666;50.920;4.628;2024-02-04T17:30:51;11.50;99.90
15131;DHT22;7666;50.920;4.628;2024-02-04T17:33:38;11.50;99.90
15131;DHT22;7666;50.920;4.628;2024-02-04T17:36:24;11.50;99.90
15131;DHT22;7666;50.920;4.628;2024-02-04T17:39:10;11.50;99.90
15131;DHT22;7666;50.920;4.628;2024-02-04T17:41:57;11.50;99.90
15131;DHT22;7666;50.920;4.628;2024-02-04T17:44:43;11.50;99.90
15131;DHT22;7666;50.920;4.628;2024-02-04T17:47:29;11.50;99.90
15131;DHT22;7666;50.920;4.628;2024-02-04T17:50:15;11.50;99.90
15131;DHT22;7666;50.920;4.628;2024-02-04T17:53:01;11.50;99.90
15131;DHT22;7666;50.920;4.628;2024-02-04T17:55:47;11.40;99.90
15131;DHT22;7666;50.920;4.628;2024-02-04T17:58:33;11.40;99.90
15131;DHT22;7666;50.920;4.628;2024-02-04T18:01:20;11.40;99.90
15131;DHT22;7666;50.920;4.628;2024-02-04T18:04:06;11.40;99.90
15131;DHT22;7666;50.920;4.628;2024-02-04T18:06:52;11.40;99.90
15131;DHT22;7666;50.920;4.628;2024-02-04T18:09:38;11.40;99.90